Time;durP1;ratioP1;P1;durP2;ratioP2;P2;SDS_P1;SDS_P2;PMS_P1;PMS_P2;Temp;Humidity;BMP_temperature;BMP_pressure;BME280_temperature;BME280_humidity;BME280_pressure;Samples;Min_cycle;Max_cycle;Signal;HPM_P1;HPM_P2
2022/08/17 00:00:50;;;;;;;;;;;;;;;25.84;44.07;99124.22;3118465;28;19933;-65
2022/08/17 00:02:22;;;;;;;;;;;;;;;25.83;43.86;99114.56;3119933;28;20364;-65
2022/08/17 00:03:54;;;;;;;;;;;;;;;25.83;44.11;99114.56;3121262;28;19985;-64
2022/08/17 00:05:24;;;;;;;;;;;;;;;25.86;43.96;99114.19;3121123;28;19925;-64
2022/08/17 00:06:56;;;;;;;;;;;;;;;25.87;43.86;99113.19;3121162;28;19925;-65
2022/08/17 00:08:28;;;;;;;;;;;;;;;25.87;43.97;99112.34;3121153;28;19931;-65
2022/08/17 00:10:00;;;;;;;;;;;;;;;25.84;43.72;99112.72;3121146;28;19972;-65
2022/08/17 00:11:34;;;;;;;;;;;;;;;25.87;43.84;99115.03;3119248;28;19926;-65
2022/08/17 00:13:07;;;;;;;;;;;;;;;25.87;43.46;99113.19;3121232;28;19936;-65
2022/08/17 00:14:40;;;;;;;;;;;;;;;25.87;43.78;99113.19;3122896;28;20337;-65
2022/08/17 00:16:14;;;;;;;;;;;;;;;25.85;44.04;99117.91;3123420;28;19925;-65
2022/08/17 00:17:46;;;;;;;;;;;;;;;25.83;44.27;99111.09;3123260;28;20269;-65
2022/08/17 00:19:21;;;;;;;;;;;;;;;25.79;44.02;99125.75;3123367;28;19925;-65
2022/08/17 00:20:53;;;;;;;;;;;;;;;25.74;44.51;99112.16;3123438;28;19940;-65
2022/08/17 00:22:24;;;;;;;;;;;;;;;25.72;44.15;99106.16;3130332;27;20290;-65
2022/08/17 00:23:56;;;;;;;;;;;;;;;25.71;44.19;99117.84;3129813;27;19929;-65
2022/08/17 00:25:27;;;;;;;;;;;;;;;25.68;44.42;99115.56;3123350;28;20039;-65
2022/08/17 00:26:58;;;;;;;;;;;;;;;25.66;44.33;99113.06;3123063;28;19929;-65
2022/08/17 00:28:30;;;;;;;;;;;;;;;25.64;44.39;99112.41;3121039;28;19925;-65
2022/08/17 00:30:03;;;;;;;;;;;;;;;25.64;44.54;99109.75;3123568;28;19951;-65
2022/08/17 00:31:35;;;;;;;;;;;;;;;25.63;44.64;99108.91;3123305;28;19936;-65
2022/08/17 00:33:07;;;;;;;;;;;;;;;25.63;44.72;99114.25;3122877;28;19925;-65
2022/08/17 00:34:39;;;;;;;;;;;;;;;25.64;44.55;99112.41;3123279;28;20016;-65
2022/08/17 00:36:11;;;;;;;;;;;;;;;25.64;44.60;99112.41;3123145;28;19996;-64
2022/08/17 00:37:42;;;;;;;;;;;;;;;25.64;44.52;99118.59;3122901;28;19933;-65
2022/08/17 00:39:13;;;;;;;;;;;;;;;25.65;44.24;99120.25;3122997;28;20364;-65
2022/08/17 00:40:49;;;;;;;;;;;;;;;25.67;44.27;99111.22;3123057;28;20013;-65
2022/08/17 00:42:19;;;;;;;;;;;;;;;25.65;44.42;99112.25;3123299;28;19930;-67
2022/08/17 00:43:52;;;;;;;;;;;;;;;25.65;44.30;99119.41;3123004;28;20004;-65
2022/08/17 00:45:26;;;;;;;;;;;;;;;25.62;44.87;99111.78;3122911;28;19929;-65
2022/08/17 00:46:58;;;;;;;;;;;;;;;25.61;44.87;99112.78;3120915;28;20277;-65
2022/08/17 00:48:29;;;;;;;;;;;;;;;25.60;44.80;99117.28;3122715;28;19989;-65
2022/08/17 00:50:01;;;;;;;;;;;;;;;25.59;44.71;99110.31;3122950;28;19925;-64
2022/08/17 00:51:35;;;;;;;;;;;;;;;25.56;44.95;99113.34;3122916;28;19940;-65
2022/08/17 00:53:06;;;;;;;;;;;;;;;25.54;44.99;99120.69;3122919;28;20432;-65
2022/08/17 00:54:39;;;;;;;;;;;;;;;25.53;44.99;99119.03;3116434;28;19926;-65
2022/08/17 00:56:14;;;;;;;;;;;;;;;25.51;44.92;99121.03;3123014;28;19926;-65
2022/08/17 00:57:48;;;;;;;;;;;;;;;25.47;45.45;99124.25;3123144;28;19940;-63
2022/08/17 00:59:21;;;;;;;;;;;;;;;25.46;45.41;99120.75;3122840;28;19925;-63
2022/08/17 01:00:54;;;;;;;;;;;;;;;25.43;45.17;99127.28;3122868;28;19929;-65
2022/08/17 01:02:26;;;;;;;;;;;;;;;25.42;45.44;99119.47;3122745;28;19925;-64
2022/08/17 01:03:58;;;;;;;;;;;;;;;25.40;45.51;99118.81;3116480;28;19926;-64
2022/08/17 01:05:30;;;;;;;;;;;;;;;25.37;45.40;99117.34;3123014;28;19997;-66
2022/08/17 01:07:03;;;;;;;;;;;;;;;25.35;45.73;99115.84;3123093;28;20068;-65
2022/08/17 01:08:37;;;;;;;;;;;;;;;25.34;45.55;99116.88;3116702;28;19925;-65
2022/08/17 01:10:10;;;;;;;;;;;;;;;25.32;45.59;99117.06;3121475;28;19929;-64
2022/08/17 01:11:42;;;;;;;;;;;;;;;25.32;45.66;99121.56;3121539;28;19925;-65
2022/08/17 01:13:13;;;;;;;;;;;;;;;25.32;45.61;99125.06;3122781;28;19929;-65
2022/08/17 01:14:44;;;;;;;;;;;;;;;25.31;45.87;99125.25;3122961;28;19936;-65
2022/08/17 01:16:18;;;;;;;;;;;;;;;25.30;45.92;99115.59;3122659;28;20257;-65
2022/08/17 01:17:49;;;;;;;;;;;;;;;25.32;45.70;99119.75;3122367;28;19926;-63
2022/08/17 01:19:23;;;;;;;;;;;;;;;25.30;45.89;99118.25;3122548;28;19926;-63
2022/08/17 01:20:56;;;;;;;;;;;;;;;25.28;45.97;99113.09;3118253;28;19925;-65
2022/08/17 01:22:31;;;;;;;;;;;;;;;25.30;45.85;99118.25;3122420;28;19926;-64
2022/08/17 01:24:02;;;;;;;;;;;;;;;25.29;45.78;99113.91;3118287;28;19987;-64
2022/08/17 01:25:35;;;;;;;;;;;;;;;25.28;45.99;99114.94;3118906;28;19929;-64
2022/08/17 01:27:06;;;;;;;;;;;;;;;25.25;46.06;99109.97;3121084;28;19925;-64
2022/08/17 01:28:38;;;;;;;;;;;;;;;25.25;45.85;99117.97;3121002;28;19925;-64
2022/08/17 01:30:11;;;;;;;;;;;;;;;25.24;45.81;99111.81;3121040;28;19933;-64
2022/08/17 01:31:46;;;;;;;;;;;;;;;25.24;46.20;99111.00;3121392;28;19940;-64
2022/08/17 01:33:17;;;;;;;;;;;;;;;25.22;45.86;99113.00;3121151;28;19925;-64
2022/08/17 01:34:49;;;;;;;;;;;;;;;25.23;46.01;99111.97;3119268;28;20384;-64
2022/08/17 01:36:21;;;;;;;;;;;;;;;25.23;46.16;99111.97;3121186;28;19936;-64
2022/08/17 01:37:54;;;;;;;;;;;;;;;25.22;45.90;99107.66;3119539;28;19940;-64
2022/08/17 01:39:27;;;;;;;;;;;;;;;25.22;45.76;99107.66;3119255;28;19936;-65
2022/08/17 01:41:00;;;;;;;;;;;;;;;25.23;45.74;99101.31;3121626;28;20334;-63
2022/08/17 01:42:33;;;;;;;;;;;;;;;25.24;45.80;99108.31;3122219;28;20221;-65
2022/08/17 01:44:06;;;;;;;;;;;;;;;25.23;45.80;99101.31;3122317;28;19925;-64
2022/08/17 01:45:42;;;;;;;;;;;;;;;25.22;45.91;99097.84;3122150;28;20434;-65
2022/08/17 01:47:13;;;;;;;;;;;;;;;25.21;45.93;99098.03;3122537;28;19925;-66
2022/08/17 01:48:46;;;;;;;;;;;;;;;25.19;45.94;99098.19;3122352;28;19985;-64
2022/08/17 01:50:19;;;;;;;;;;;;;;;25.16;46.12;99095.88;3122061;28;19937;-65
2022/08/17 01:51:50;;;;;;;;;;;;;;;25.17;45.96;99097.53;3121872;28;19936;-65
2022/08/17 01:53:28;;;;;;;;;;;;;;;25.16;46.04;99091.38;3122234;28;19951;-65
2022/08/17 01:55:00;;;;;;;;;;;;;;;25.13;46.21;99097.06;3122476;28;19929;-63
2022/08/17 01:56:34;;;;;;;;;;;;;;;25.13;46.18;99096.22;3122251;28;19936;-62
2022/08/17 01:58:08;;;;;;;;;;;;;;;25.08;46.31;99095.94;3122128;28;20288;-63
2022/08/17 01:59:40;;;;;;;;;;;;;;;25.06;46.23;99093.47;3122373;28;19925;-62
2022/08/17 02:01:13;;;;;;;;;;;;;;;25.07;46.38;99088.94;3120485;28;19936;-64
2022/08/17 02:02:45;;;;;;;;;;;;;;;25.02;46.59;99086.81;3122175;28;19989;-65
2022/08/17 02:04:17;;;;;;;;;;;;;;;24.99;46.82;99089.84;3122361;28;19936;-66
2022/08/17 02:05:48;;;;;;;;;;;;;;;24.97;46.67;99083.88;3122153;28;20376;-64
2022/08/17 02:07:19;;;;;;;;;;;;;;;24.95;46.92;99081.38;3119363;28;20033;-63
2022/08/17 02:08:53;;;;;;;;;;;;;;;24.93;47.00;99086.06;3122173;28;20378;-64
2022/08/17 02:10:24;;;;;;;;;;;;;;;24.91;46.85;99090.75;3122017;28;19933;-63
2022/08/17 02:11:57;;;;;;;;;;;;;;;24.92;46.94;99079.09;3121934;28;20044;-63
2022/08/17 02:13:28;;;;;;;;;;;;;;;24.91;46.89;99087.25;3122180;28;20329;-63
2022/08/17 02:15:00;;;;;;;;;;;;;;;24.91;46.86;99081.94;3121919;28;19925;-63
2022/08/17 02:16:32;;;;;;;;;;;;;;;24.93;46.85;99085.22;3122243;28;19924;-63
2022/08/17 02:18:05;;;;;;;;;;;;;;;24.92;46.77;99083.59;3122182;28;19929;-63
2022/08/17 02:19:37;;;;;;;;;;;;;;;24.89;46.96;99089.28;3122409;28;19929;-63
2022/08/17 02:21:08;;;;;;;;;;;;;;;24.88;46.80;99088.44;3127202;27;19928;-63
2022/08/17 02:22:41;;;;;;;;;;;;;;;24.86;47.29;99086.97;3121723;28;20380;-63
2022/08/17 02:24:17;;;;;;;;;;;;;;;24.83;47.26;99088.16;3121885;28;20016;-64
2022/08/17 02:25:49;;;;;;;;;;;;;;;24.82;47.25;99091.81;3119525;28;19940;-63
2022/08/17 02:27:21;;;;;;;;;;;;;;;24.82;47.14;99091.00;3115634;28;19925;-63
2022/08/17 02:28:53;;;;;;;;;;;;;;;24.80;47.24;99091.16;3121722;28;20306;-63
2022/08/17 02:30:25;;;;;;;;;;;;;;;24.80;47.23;99093.81;3121663;28;19929;-63
2022/08/17 02:31:57;;;;;;;;;;;;;;;24.79;47.58;99091.31;3121986;28;19925;-63
2022/08/17 02:33:29;;;;;;;;;;;;;;;24.75;47.49;99090.84;3121621;28;19929;-63
2022/08/17 02:35:01;;;;;;;;;;;;;;;24.74;47.42;99098.03;3121948;28;19925;-63
2022/08/17 02:36:33;;;;;;;;;;;;;;;24.72;47.89;99099.22;3121480;28;19925;-63
2022/08/17 02:38:05;;;;;;;;;;;;;;;24.68;47.90;99088.09;3121813;28;20016;-63
2022/08/17 02:39:38;;;;;;;;;;;;;;;24.69;47.58;99102.22;3121598;28;20015;-64
2022/08/17 02:41:11;;;;;;;;;;;;;;;24.68;47.93;99098.75;3121592;28;19925;-63
2022/08/17 02:42:44;;;;;;;;;;;;;;;24.63;47.94;99095.75;3121553;28;20692;-63
2022/08/17 02:44:16;;;;;;;;;;;;;;;24.61;48.06;99097.81;3121805;28;19926;-63
2022/08/17 02:45:48;;;;;;;;;;;;;;;24.59;48.27;99097.13;3121688;28;19933;-63
2022/08/17 02:47:18;;;;;;;;;;;;;;;24.57;48.36;99101.81;3121781;28;19925;-64
2022/08/17 02:48:50;;;;;;;;;;;;;;;24.55;48.30;99100.31;3115386;27;20019;-63
2022/08/17 02:50:23;;;;;;;;;;;;;;;24.53;48.41;99100.50;3122103;28;19936;-64
2022/08/17 02:51:56;;;;;;;;;;;;;;;24.52;48.33;99105.00;3121715;28;19929;-63
2022/08/17 02:53:28;;;;;;;;;;;;;;;24.50;48.79;99095.53;3121750;28;19925;-63
2022/08/17 02:55:01;;;;;;;;;;;;;;;24.50;48.69;99099.03;3121478;28;20356;-64
2022/08/17 02:56:33;;;;;;;;;;;;;;;24.47;48.64;99101.22;3121231;28;20378;-64
2022/08/17 02:58:05;;;;;;;;;;;;;;;24.45;48.74;99096.06;3121791;28;19929;-65
2022/08/17 02:59:36;;;;;;;;;;;;;;;24.42;48.98;99099.06;3121715;28;19925;-64
2022/08/17 03:01:09;;;;;;;;;;;;;;;24.41;48.99;99100.03;3121527;28;20288;-64
2022/08/17 03:02:42;;;;;;;;;;;;;;;24.41;49.15;99101.88;3117023;28;19925;-64
2022/08/17 03:04:12;;;;;;;;;;;;;;;24.37;49.43;99105.88;3121607;28;19992;-64
2022/08/17 03:05:45;;;;;;;;;;;;;;;24.35;49.21;99110.56;3121752;28;19941;-65
2022/08/17 03:07:19;;;;;;;;;;;;;;;24.30;49.40;99097.78;3121448;28;20401;-65
2022/08/17 03:08:51;;;;;;;;;;;;;;;24.30;49.56;99100.44;3121704;28;19929;-64
2022/08/17 03:10:23;;;;;;;;;;;;;;;24.26;49.80;99099.13;3121431;28;19942;-64
2022/08/17 03:11:55;;;;;;;;;;;;;;;24.22;49.63;99101.28;3121503;28;19929;-64
2022/08/17 03:13:27;;;;;;;;;;;;;;;24.21;49.73;99104.16;3121614;28;19936;-64
2022/08/17 03:15:02;;;;;;;;;;;;;;;24.21;49.47;99109.47;3121791;28;19929;-64
2022/08/17 03:16:33;;;;;;;;;;;;;;;24.20;49.82;99102.50;3118356;28;19929;-64
2022/08/17 03:18:05;;;;;;;;;;;;;;;24.21;49.44;99112.13;3121391;28;20372;-64
2022/08/17 03:19:37;;;;;;;;;;;;;;;24.22;49.44;99109.28;3121668;28;19944;-64
2022/08/17 03:21:09;;;;;;;;;;;;;;;24.21;49.63;99110.28;3121543;28;19929;-64
2022/08/17 03:22:41;;;;;;;;;;;;;;;24.21;49.45;99107.63;3121266;28;20365;-64
2022/08/17 03:24:14;;;;;;;;;;;;;;;24.21;49.45;99110.28;3121441;28;20334;-64
2022/08/17 03:25:47;;;;;;;;;;;;;;;24.22;49.55;99114.59;3119711;28;19994;-64
2022/08/17 03:27:18;;;;;;;;;;;;;;;24.21;49.64;99101.47;3121706;28;19940;-65
2022/08/17 03:28:50;;;;;;;;;;;;;;;24.21;49.37;99104.16;3121264;28;19926;-65
2022/08/17 03:30:21;;;;;;;;;;;;;;;24.19;49.74;99101.63;3121137;28;19936;-65
2022/08/17 03:31:53;;;;;;;;;;;;;;;24.22;49.61;99100.47;3121579;28;19933;-65
2022/08/17 03:33:25;;;;;;;;;;;;;;;24.21;49.56;99115.59;3120876;28;20352;-65
2022/08/17 03:34:59;;;;;;;;;;;;;;;24.18;49.65;99109.81;3121257;28;20284;-65
2022/08/17 03:36:31;;;;;;;;;;;;;;;24.16;49.90;99114.47;3121144;28;19943;-65
2022/08/17 03:38:03;;;;;;;;;;;;;;;24.13;50.01;99118.31;3121033;28;19936;-64
2022/08/17 03:39:35;;;;;;;;;;;;;;;24.10;49.88;99118.66;3116289;28;20340;-64
2022/08/17 03:41:08;;;;;;;;;;;;;;;24.11;49.97;99115.00;3120927;28;20387;-65
2022/08/17 03:42:39;;;;;;;;;;;;;;;24.11;49.84;99116.81;3120965;28;19960;-64
2022/08/17 03:44:11;;;;;;;;;;;;;;;24.10;50.01;99118.66;3121407;28;19933;-65
2022/08/17 03:56:57;;;;;;;;;;;;;;;23.94;51.05;99134.69;3089656;28;20405;-63
2022/08/17 03:58:29;;;;;;;;;;;;;;;23.91;51.19;99135.03;3083280;28;19929;-64
2022/08/17 04:00:01;;;;;;;;;;;;;;;23.86;51.28;99138.19;3117371;28;19945;-64
2022/08/17 04:01:32;;;;;;;;;;;;;;;23.81;51.83;99140.50;3121240;28;19925;-63
2022/08/17 04:03:05;;;;;;;;;;;;;;;23.77;51.65;99139.22;3121067;28;20284;-65
2022/08/17 04:04:36;;;;;;;;;;;;;;;23.73;51.92;99143.22;3121170;28;19925;-65
2022/08/17 04:06:08;;;;;;;;;;;;;;;23.70;52.18;99146.22;3121209;28;19925;-65
2022/08/17 04:07:40;;;;;;;;;;;;;;;23.64;52.46;99141.53;3120970;28;19985;-63
2022/08/17 04:09:10;;;;;;;;;;;;;;;23.63;52.05;99140.69;3121272;28;19924;-65
2022/08/17 04:10:42;;;;;;;;;;;;;;;23.65;52.56;99143.19;3121169;28;19978;-65
2022/08/17 04:12:16;;;;;;;;;;;;;;;23.69;52.27;99152.47;3120759;28;19990;-64
2022/08/17 04:13:47;;;;;;;;;;;;;;;23.71;52.13;99150.53;3119868;28;20002;-64
2022/08/17 04:15:19;;;;;;;;;;;;;;;23.67;52.66;99163.28;3120825;28;19959;-64
2022/08/17 04:16:50;;;;;;;;;;;;;;;23.60;52.98;99160.50;3121079;28;20300;-64
2022/08/17 04:18:22;;;;;;;;;;;;;;;23.58;53.16;99159.00;3121032;28;19933;-64
2022/08/17 04:19:54;;;;;;;;;;;;;;;23.57;52.86;99166.16;3121249;28;19929;-67
2022/08/17 04:21:26;;;;;;;;;;;;;;;23.54;53.08;99158.47;3156856;28;19935;-65
2022/08/17 04:22:58;;;;;;;;;;;;;;;23.55;53.14;99164.66;3121257;28;20008;-64
2022/08/17 04:24:30;;;;;;;;;;;;;;;23.53;53.32;99166.63;3120952;28;20016;-64
2022/08/17 04:26:02;;;;;;;;;;;;;;;23.51;53.62;99171.28;3120049;28;19936;-64
2022/08/17 04:27:35;;;;;;;;;;;;;;;23.48;53.78;99160.97;3120723;28;20372;-64
2022/08/17 04:29:07;;;;;;;;;;;;;;;23.47;53.80;99164.66;3120697;28;19986;-63
2022/08/17 04:30:38;;;;;;;;;;;;;;;23.49;53.47;99171.47;3120849;28;20311;-64
2022/08/17 04:32:10;;;;;;;;;;;;;;;23.51;53.42;99158.81;3120891;28;19925;-65
2022/08/17 04:33:42;;;;;;;;;;;;;;;23.53;53.28;99169.28;3120842;28;19925;-64
2022/08/17 04:35:17;;;;;;;;;;;;;;;23.56;53.09;99166.31;3120949;28;19928;-64
2022/08/17 04:36:48;;;;;;;;;;;;;;;23.61;53.09;99166.63;3119572;28;19931;-64
2022/08/17 04:38:20;;;;;;;;;;;;;;;23.64;52.75;99160.97;3120738;28;20384;-64
2022/08/17 04:43:29;;;;;;;;;;;;;;;23.80;52.13;99173.44;3120745;28;19968;-63
2022/08/17 04:45:02;;;;;;;;;;;;;;;23.85;51.92;99173.75;3120661;28;20373;-64
2022/08/17 04:46:34;;;;;;;;;;;;;;;23.91;51.64;99169.59;3120790;28;20373;-65
2022/08/17 04:48:05;;;;;;;;;;;;;;;23.95;51.63;99169.06;3120646;28;20427;-64
2022/08/17 04:49:37;;;;;;;;;;;;;;;23.99;51.88;99175.72;3120970;28;19935;-64
2022/08/17 04:51:09;;;;;;;;;;;;;;;24.02;51.64;99172.72;3121032;28;20261;-65
2022/08/17 04:52:45;;;;;;;;;;;;;;;24.08;51.52;99173.88;3121146;28;20269;-64
2022/08/17 04:54:18;;;;;;;;;;;;;;;24.11;51.42;99173.53;3114409;28;20001;-64
2022/08/17 04:55:51;;;;;;;;;;;;;;;24.15;51.37;99180.16;3120549;28;19936;-64
2022/08/17 04:57:23;;;;;;;;;;;;;;;24.20;51.46;99163.69;3120699;28;20368;-64
2022/08/17 04:58:57;;;;;;;;;;;;;;;24.25;50.91;99172.81;3120897;28;19925;-64
2022/08/17 05:00:29;;;;;;;;;;;;;;;24.29;50.89;99175.94;3117902;28;20542;-64
2022/08/17 05:02:01;;;;;;;;;;;;;;;24.31;51.15;99176.59;3122973;28;19925;-65
2022/08/17 05:03:31;;;;;;;;;;;;;;;24.35;51.09;99174.44;3122982;28;19925;-64
2022/08/17 05:05:03;;;;;;;;;;;;;;;24.39;50.70;99173.91;3122958;28;20019;-65
2022/08/17 05:06:35;;;;;;;;;;;;;;;24.42;50.61;99172.72;3115973;28;19925;-64
2022/08/17 05:08:06;;;;;;;;;;;;;;;24.47;50.83;99178.41;3122932;28;19929;-64
2022/08/17 05:09:38;;;;;;;;;;;;;;;24.49;50.73;99174.56;3118768;28;19925;-64
2022/08/17 05:11:09;;;;;;;;;;;;;;;24.55;50.40;99181.03;3122506;28;19929;-64
2022/08/17 05:12:41;;;;;;;;;;;;;;;24.58;50.21;99185.16;3122779;28;20445;-64
2022/08/17 05:14:14;;;;;;;;;;;;;;;24.62;50.26;99187.28;3122590;28;20273;-64
2022/08/17 05:15:47;;;;;;;;;;;;;;;24.65;49.67;99181.63;3122866;28;19965;-64
2022/08/17 05:17:18;;;;;;;;;;;;;;;24.71;49.55;99185.41;3122934;28;19925;-64
2022/08/17 05:18:50;;;;;;;;;;;;;;;24.74;49.19;99196.53;3122901;28;20273;-64
2022/08/17 05:20:21;;;;;;;;;;;;;;;24.80;48.59;99183.53;3122642;28;19925;-64
2022/08/17 05:21:53;;;;;;;;;;;;;;;24.86;48.70;99182.84;3120736;28;20265;-65
2022/08/17 05:23:26;;;;;;;;;;;;;;;24.91;48.37;99186.63;3119571;28;19926;-65
2022/08/17 05:24:58;;;;;;;;;;;;;;;25.00;47.86;99189.25;3122863;28;20372;-65
2022/08/17 05:26:29;;;;;;;;;;;;;;;25.07;47.52;99185.69;3122586;28;19989;-64
2022/08/17 05:28:01;;;;;;;;;;;;;;;25.15;47.35;99185.66;3122629;28;19925;-64
2022/08/17 05:29:35;;;;;;;;;;;;;;;25.24;47.01;99188.28;3122805;28;19926;-64
2022/08/17 05:31:07;;;;;;;;;;;;;;;25.32;46.71;99188.19;3122773;28;19936;-64
2022/08/17 05:32:38;;;;;;;;;;;;;;;25.42;46.53;99188.78;3122514;28;20431;-65
2022/08/17 05:34:10;;;;;;;;;;;;;;;25.49;46.41;99195.03;3122339;28;20391;-65
2022/08/17 05:35:42;;;;;;;;;;;;;;;25.57;46.36;99191.47;3122585;28;19926;-64
2022/08/17 05:37:14;;;;;;;;;;;;;;;25.65;46.09;99189.56;3122227;28;20385;-64
2022/08/17 05:38:46;;;;;;;;;;;;;;;25.74;45.83;99198.31;3122364;28;19933;-65
2022/08/17 05:40:17;;;;;;;;;;;;;;;25.80;45.68;99197.59;3122686;28;19929;-65
2022/08/17 05:41:49;;;;;;;;;;;;;;;25.90;45.16;99196.53;3122182;28;20384;-65
2022/08/17 05:43:21;;;;;;;;;;;;;;;26.20;44.48;99192.00;3122508;28;19989;-65
2022/08/17 05:44:56;;;;;;;;;;;;;;;26.97;43.03;99192.34;3122530;28;19925;-64
2022/08/17 05:46:31;;;;;;;;;;;;;;;27.58;41.76;99181.22;3122362;28;19934;-64
2022/08/17 05:48:03;;;;;;;;;;;;;;;27.80;41.03;99186.53;3122469;28;19936;-64
2022/08/17 05:49:35;;;;;;;;;;;;;;;27.81;41.08;99189.03;3122364;28;20383;-65
2022/08/17 05:51:28;;;;;;;;;;;;;;;27.73;41.27;99193.66;3122302;28;20379;-65
2022/08/17 05:53:03;;;;;;;;;;;;;;;27.72;41.25;99182.13;3123740;28;20348;-65
2022/08/17 05:54:42;;;;;;;;;;;;;;;27.77;40.96;99195.72;3122396;28;19951;-65
2022/08/17 05:56:18;;;;;;;;;;;;;;;27.75;40.84;99186.28;3122207;28;19940;-65
2022/08/17 05:57:59;;;;;;;;;;;;;;;27.74;41.41;99190.78;3122449;28;19925;-65
2022/08/17 05:59:35;;;;;;;;;;;;;;;27.70;40.80;99188.69;3116842;28;19936;-65
2022/08/17 06:01:12;;;;;;;;;;;;;;;27.61;41.00;99186.16;3116752;28;19936;-65
2022/08/17 06:02:54;;;;;;;;;;;;;;;27.54;41.08;99189.78;3122277;28;19929;-65
2022/08/17 06:04:34;;;;;;;;;;;;;;;27.48;41.11;99186.06;3122345;28;19941;-65
2022/08/17 06:06:32;;;;;;;;;;;;;;;27.43;41.04;99189.31;3122161;28;19935;-65
2022/08/17 06:08:09;;;;;;;;;;;;;;;27.40;41.00;99195.06;3134403;28;19940;-65
2022/08/17 06:09:45;;;;;;;;;;;;;;;27.43;41.27;99199.19;3122397;28;20003;-65
2022/08/17 06:11:21;;;;;;;;;;;;;;;27.43;40.85;99194.66;3116432;28;20376;-65
2022/08/17 06:12:58;;;;;;;;;;;;;;;27.47;41.17;99199.63;3136780;27;19936;-65
2022/08/17 06:14:34;;;;;;;;;;;;;;;27.50;40.82;99199.25;3122069;28;19925;-65
2022/08/17 06:16:10;;;;;;;;;;;;;;;27.54;40.59;99203.16;3115736;28;19948;-65
2022/08/17 06:17:42;;;;;;;;;;;;;;;27.61;40.91;99202.22;3122298;28;19937;-65
2022/08/17 06:19:15;;;;;;;;;;;;;;;27.65;40.50;99189.28;3120099;28;19940;-65
2022/08/17 06:20:50;;;;;;;;;;;;;;;27.71;40.62;99201.03;3118072;28;19925;-65
2022/08/17 06:22:22;;;;;;;;;;;;;;;27.77;40.67;99195.72;3120665;28;19932;-65
2022/08/17 06:23:58;;;;;;;;;;;;;;;27.85;40.52;99202.81;3122073;28;20368;-65
2022/08/17 06:25:31;;;;;;;;;;;;;;;27.92;40.46;99203.69;3117389;28;20288;-65
2022/08/17 06:27:07;;;;;;;;;;;;;;;27.99;40.18;99201.06;3115777;28;19933;-65
2022/08/17 06:28:41;;;;;;;;;;;;;;;28.03;39.71;99200.47;3122001;28;20015;-65
2022/08/17 06:30:14;;;;;;;;;;;;;;;28.09;39.26;99201.53;3122041;28;19925;-65
2022/08/17 06:31:47;;;;;;;;;;;;;;;28.12;39.65;99199.28;3122001;28;19990;-65
2022/08/17 06:33:20;;;;;;;;;;;;;;;28.20;39.66;99206.34;3119432;28;19933;-65
2022/08/17 06:34:52;;;;;;;;;;;;;;;28.22;39.21;99203.44;3120394;28;19925;-65
2022/08/17 06:36:32;;;;;;;;;;;;;;;28.28;39.36;99198.16;3121920;28;20365;-65
2022/08/17 06:38:09;;;;;;;;;;;;;;;28.36;39.17;99207.84;3122123;28;19967;-65
2022/08/17 06:39:46;;;;;;;;;;;;;;;28.44;39.11;99205.03;3121690;28;19925;-65
2022/08/17 06:41:21;;;;;;;;;;;;;;;28.50;39.14;99201.56;3119674;28;19940;-65
2022/08/17 06:42:57;;;;;;;;;;;;;;;28.56;38.56;99205.31;3122139;28;19925;-65
2022/08/17 06:44:32;;;;;;;;;;;;;;;28.61;38.50;99204.72;3121841;28;19990;-65
2022/08/17 06:46:09;;;;;;;;;;;;;;;28.67;38.41;99212.78;3121704;28;20261;-65
2022/08/17 06:47:46;;;;;;;;;;;;;;;28.69;37.98;99197.31;3121596;28;19925;-65
2022/08/17 06:49:24;;;;;;;;;;;;;;;28.72;38.56;99199.59;3116093;28;20484;-65
2022/08/17 06:50:58;;;;;;;;;;;;;;;28.76;38.28;99200.84;3116197;28;19926;-65
2022/08/17 06:52:33;;;;;;;;;;;;;;;28.83;37.98;99194.66;3115631;28;20425;-65
2022/08/17 06:54:07;;;;;;;;;;;;;;;28.89;38.18;99193.84;3121866;28;19925;-65
2022/08/17 06:55:44;;;;;;;;;;;;;;;28.95;38.16;99199.22;3121698;28;20303;-65
2022/08/17 06:57:18;;;;;;;;;;;;;;;29.01;37.83;99192.22;3121668;28;19925;-66
2022/08/17 06:58:50;;;;;;;;;;;;;;;29.07;37.70;99201.34;3121894;28;19993;-65
2022/08/17 07:00:23;;;;;;;;;;;;;;;29.10;37.44;99196.41;3121756;28;19929;-65
2022/08/17 07:01:55;;;;;;;;;;;;;;;29.14;37.72;99197.66;3120810;28;20464;-65
2022/08/17 07:03:34;;;;;;;;;;;;;;;29.21;37.63;99197.66;3121607;28;19925;-65
2022/08/17 07:05:06;;;;;;;;;;;;;;;29.27;37.50;99190.66;3121630;28;19925;-65
2022/08/17 07:06:40;;;;;;;;;;;;;;;29.31;37.29;99197.25;3121598;28;19933;-65
2022/08/17 07:08:15;;;;;;;;;;;;;;;29.39;37.26;99195.19;3121824;28;19936;-65
2022/08/17 07:09:48;;;;;;;;;;;;;;;29.46;37.48;99190.69;3115647;28;20360;-65
2022/08/17 07:11:23;;;;;;;;;;;;;;;29.55;37.41;99193.13;3121384;28;20416;-65
2022/08/17 07:12:58;;;;;;;;;;;;;;;29.63;37.11;99190.28;3121489;28;20388;-65
2022/08/17 07:14:35;;;;;;;;;;;;;;;29.69;36.81;99194.81;3121680;28;19994;-64
2022/08/17 07:16:14;;;;;;;;;;;;;;;29.74;36.71;99194.19;3121420;28;19929;-64
2022/08/17 07:17:46;;;;;;;;;;;;;;;29.80;37.06;99191.50;3121237;28;19994;-64
2022/08/17 07:19:21;;;;;;;;;;;;;;;29.89;37.17;99192.09;3121370;28;20388;-64
2022/08/17 07:20:57;;;;;;;;;;;;;;;29.98;36.78;99196.22;3121371;28;20015;-64
2022/08/17 07:22:35;;;;;;;;;;;;;;;30.09;36.54;99194.75;3120857;28;20273;-64
2022/08/17 07:24:19;;;;;;;;;;;;;;;30.11;36.63;99196.19;3120584;28;19925;-64
2022/08/17 07:25:51;;;;;;;;;;;;;;;30.13;36.05;99191.41;3121352;28;19926;-64
2022/08/17 07:27:26;;;;;;;;;;;;;;;30.12;36.30;99192.47;3121272;28;19932;-64
2022/08/17 07:28:59;;;;;;;;;;;;;;;30.17;36.34;99189.13;3121348;28;19925;-64
2022/08/17 07:30:33;;;;;;;;;;;;;;;30.23;35.91;99196.41;3121174;28;20345;-64
2022/08/17 07:32:05;;;;;;;;;;;;;;;30.25;36.02;99196.16;3121140;28;20352;-64
2022/08/17 07:33:38;;;;;;;;;;;;;;;30.30;35.88;99197.19;3121684;28;19990;-65
2022/08/17 07:35:14;;;;;;;;;;;;;;;30.38;36.05;99193.44;3121654;28;19936;-65
2022/08/17 07:36:46;;;;;;;;;;;;;;;30.47;36.11;99192.19;3121359;28;20364;-64
2022/08/17 07:38:18;;;;;;;;;;;;;;;30.58;35.76;99194.16;3121471;28;19925;-64
2022/08/17 07:39:50;;;;;;;;;;;;;;;30.70;35.55;99201.56;3121057;28;20470;-64
2022/08/17 07:41:24;;;;;;;;;;;;;;;30.80;35.39;99192.03;3119116;28;20215;-64
2022/08/17 07:43:08;;;;;;;;;;;;;;;30.90;35.30;99196.13;3121505;28;19925;-64
2022/08/17 07:44:47;;;;;;;;;;;;;;;30.97;35.24;99192.34;3120490;28;19936;-64
2022/08/17 07:48:18;;;;;;;;;;;;;;;31.17;34.85;99188.69;3121266;28;19964;-64
2022/08/17 07:49:50;;;;;;;;;;;;;;;31.27;34.88;99191.75;3121447;28;19972;-64
2022/08/17 07:51:28;;;;;;;;;;;;;;;31.35;34.58;99183.41;3121224;28;19929;-64
2022/08/17 07:53:14;;;;;;;;;;;;;;;31.44;34.26;99184.81;3121303;28;19986;-65
2022/08/17 07:54:47;;;;;;;;;;;;;;;31.60;34.13;99187.97;3121419;28;19936;-64
2022/08/17 07:56:36;;;;;;;;;;;;;;;31.71;34.02;99185.38;3120995;28;19936;-65
2022/08/17 07:58:08;;;;;;;;;;;;;;;31.74;33.80;99200.28;3121300;28;19925;-64
2022/08/17 07:59:41;;;;;;;;;;;;;;;31.72;33.41;99188.91;3119426;28;20404;-65
2022/08/17 08:01:17;;;;;;;;;;;;;;;31.75;33.30;99188.44;3121228;28;20288;-64
2022/08/17 08:02:59;;;;;;;;;;;;;;;31.85;33.18;99185.25;3119789;28;20509;-64
2022/08/17 08:04:33;;;;;;;;;;;;;;;31.98;33.28;99182.47;3121304;28;19936;-64
2022/08/17 08:06:19;;;;;;;;;;;;;;;32.11;33.08;99179.59;3136043;28;19936;-64
2022/08/17 08:07:54;;;;;;;;;;;;;;;32.23;32.65;99184.25;3120995;28;20285;-64
2022/08/17 08:09:31;;;;;;;;;;;;;;;32.34;32.96;99180.81;3121132;28;20431;-64
2022/08/17 08:11:05;;;;;;;;;;;;;;;32.49;32.57;99175.06;3117565;28;19936;-64
2022/08/17 08:12:38;;;;;;;;;;;;;;;32.60;32.23;99180.50;3121311;28;19961;-65
2022/08/17 08:14:20;;;;;;;;;;;;;;;32.73;31.64;99170.59;3120559;28;19929;-64
2022/08/17 08:15:53;;;;;;;;;;;;;;;32.87;31.76;99172.03;3121120;28;19937;-65
2022/08/17 08:17:29;;;;;;;;;;;;;;;33.00;31.62;99171.03;3121148;28;19936;-64
2022/08/17 08:19:01;;;;;;;;;;;;;;;33.15;31.36;99170.59;3121108;28;20403;-65
2022/08/17 08:20:35;;;;;;;;;;;;;;;33.28;31.47;99173.94;3121167;28;19926;-64
2022/08/17 08:22:09;;;;;;;;;;;;;;;33.44;30.54;99166.19;3120846;28;19929;-65
2022/08/17 08:23:46;;;;;;;;;;;;;;;33.59;30.48;99166.56;3121177;28;20284;-65